createdAt,value
2019-01-09T00:02:32.953Z,98620.36
2019-01-09T00:05:46.693Z,98623.63
2019-01-09T00:09:00.803Z,98631.33
2019-01-09T00:12:14.959Z,98615.47
2019-01-09T00:15:28.734Z,98612.25
2019-01-09T00:18:42.531Z,98600.91
2019-01-09T00:21:56.705Z,98596.48
2019-01-09T00:25:10.902Z,98590.14
2019-01-09T00:28:25.286Z,98589.63
2019-01-09T00:31:39.227Z,98586.71
2019-01-09T00:34:53.306Z,98595.08
2019-01-09T00:38:15.434Z,98594.72
2019-01-09T00:41:29.176Z,98606.69
2019-01-09T00:44:43.048Z,98604.27
2019-01-09T00:47:57.119Z,98602.58
2019-01-09T00:51:10.995Z,98591.81
2019-01-09T00:54:24.787Z,98596.96
2019-01-09T00:57:38.536Z,98597.39
2019-01-09T01:00:52.515Z,98584.11
2019-01-09T01:04:38.243Z,98589.86
2019-01-09T01:08:15.383Z,98611.16
2019-01-09T01:12:16.631Z,98595.91
2019-01-09T01:16:04.193Z,98600.84
2019-01-09T01:19:34.027Z,98599.28
2019-01-09T01:23:37.799Z,98595.04
2019-01-09T01:27:16.442Z,98591.22
2019-01-09T01:31:14.139Z,98587.42
2019-01-09T01:34:55.217Z,98584.56
2019-01-09T01:38:39.887Z,98590.55
2019-01-09T01:42:48.284Z,98585.70
2019-01-09T01:46:43.515Z,98584.27
2019-01-09T01:50:54.075Z,98573.83
2019-01-09T01:54:51.814Z,98567.41
2019-01-09T01:58:43.699Z,98582.78
2019-01-09T02:02:26.982Z,98571.58
2019-01-09T02:06:08.554Z,98569.49
2019-01-09T02:10:12.564Z,98568.52
2019-01-09T02:13:49.033Z,98567.02
2019-01-09T02:18:01.854Z,98588.59
2019-01-09T02:21:32.376Z,98592.39
2019-01-09T02:25:03.131Z,98597.18
2019-01-09T02:29:04.443Z,98590.91
2019-01-09T02:32:30.021Z,98607.33
2019-01-09T02:35:43.626Z,98605.45
2019-01-09T02:38:57.153Z,98608.80
2019-01-09T02:42:10.721Z,98607.66
2019-01-09T02:45:24.549Z,98608.27
2019-01-09T02:48:38.197Z,98602.34
2019-01-09T02:51:52.317Z,98592.67
2019-01-09T02:55:06.469Z,98598.50
2019-01-09T02:58:20.377Z,98581.83
2019-01-09T03:01:34.338Z,98585.17
2019-01-09T03:04:48.233Z,98585.58
2019-01-09T03:08:02.514Z,98582.66
2019-01-09T03:11:16.391Z,98590.44
2019-01-09T03:14:30.549Z,98586.03
2019-01-09T03:17:44.696Z,98583.26
2019-01-09T03:20:58.864Z,98577.16
2019-01-09T03:24:12.612Z,98572.08
2019-01-09T03:27:26.631Z,98578.80
2019-01-09T03:30:40.209Z,98573.83
2019-01-09T03:33:53.979Z,98571.05
2019-01-09T03:37:07.523Z,98576.89
2019-01-09T03:40:21.279Z,98576.53
2019-01-09T03:43:35.337Z,98563.92
2019-01-09T03:46:49.399Z,98565.06
2019-01-09T03:50:03.572Z,98549.30
2019-01-09T03:53:17.458Z,98544.02
2019-01-09T03:56:31.310Z,98542.10
2019-01-09T03:59:45.474Z,98528.88
2019-01-09T04:02:59.541Z,98522.00
2019-01-09T04:06:13.470Z,98520.05
2019-01-09T04:09:29.459Z,98528.60
2019-01-09T04:12:43.389Z,98514.02
2019-01-09T04:15:57.559Z,98513.74
2019-01-09T04:19:11.614Z,98510.92
2019-01-09T04:22:25.377Z,98503.26
2019-01-09T04:25:38.950Z,98495.86
2019-01-09T04:28:52.880Z,98492.66
2019-01-09T04:32:06.577Z,98494.21
2019-01-09T04:35:20.612Z,98500.19
2019-01-09T04:38:34.602Z,98503.89
2019-01-09T04:41:48.134Z,98510.48
2019-01-09T04:45:02.052Z,98511.52
2019-01-09T04:48:15.875Z,98510.63
2019-01-09T04:51:29.426Z,98512.45
2019-01-09T04:54:43.320Z,98522.84
2019-01-09T04:57:57.203Z,98523.56
2019-01-09T05:01:11.080Z,98529.30
2019-01-09T05:04:24.656Z,98517.73
2019-01-09T05:07:38.273Z,98517.23
2019-01-09T05:10:52.165Z,98519.91
2019-01-09T05:14:06.289Z,98522.21
2019-01-09T05:17:19.957Z,98526.19
2019-01-09T05:20:33.596Z,98535.16
2019-01-09T05:23:47.356Z,98535.36
2019-01-09T05:27:01.585Z,98543.09
2019-01-09T05:30:15.628Z,98544.94
2019-01-09T05:33:30.337Z,98550.14
2019-01-09T05:36:43.916Z,98559.91
2019-01-09T05:39:57.456Z,98537.19
2019-01-09T05:43:11.051Z,98516.86
2019-01-09T05:46:24.830Z,98530.16
2019-01-09T05:49:39.683Z,98528.63
2019-01-09T05:52:53.741Z,98524.09
2019-01-09T05:56:07.747Z,98517.43
2019-01-09T05:59:21.763Z,98511.02
2019-01-09T06:02:36.024Z,98510.27
2019-01-09T06:05:49.669Z,98503.20
2019-01-09T06:09:05.044Z,98504.14
2019-01-09T06:12:18.591Z,98492.54
2019-01-09T06:15:32.340Z,98492.34
2019-01-09T06:18:45.891Z,98495.76
2019-01-09T06:21:59.612Z,98501.70
2019-01-09T06:25:13.272Z,98510.22
2019-01-09T06:28:27.099Z,98515.22
2019-01-09T06:31:41.202Z,98529.04
2019-01-09T06:34:54.827Z,98524.18
2019-01-09T06:38:08.591Z,98539.06
2019-01-09T06:41:22.108Z,98542.45
2019-01-09T06:44:35.643Z,98546.80
2019-01-09T06:47:49.860Z,98549.70
2019-01-09T06:51:03.875Z,98556.58
2019-01-09T06:54:17.448Z,98565.89
2019-01-09T06:57:30.957Z,98566.16
2019-01-09T07:00:45.081Z,98569.41
2019-01-09T07:03:58.736Z,98569.65
2019-01-09T07:07:12.368Z,98564.38
2019-01-09T07:10:25.899Z,98558.33
2019-01-09T07:13:39.720Z,98559.31
2019-01-09T07:16:53.667Z,98559.90
2019-01-09T07:20:07.717Z,98568.83
2019-01-09T07:23:21.257Z,98574.85
2019-01-09T07:26:34.995Z,98574.95
2019-01-09T07:29:48.722Z,98579.34
2019-01-09T07:33:02.688Z,98589.30
2019-01-09T07:36:16.483Z,98592.92
2019-01-09T07:39:31.093Z,98586.89
2019-01-09T07:42:45.230Z,98588.84
2019-01-09T07:45:59.104Z,98577.69
2019-01-09T07:49:12.997Z,98576.86
2019-01-09T07:52:27.307Z,98575.19
2019-01-09T07:55:41.266Z,98574.59
2019-01-09T07:58:54.837Z,98575.91
2019-01-09T08:02:08.627Z,98581.45
2019-01-09T08:05:22.395Z,98578.85
2019-01-09T08:08:36.090Z,98566.26
2019-01-09T08:11:49.890Z,98572.72
2019-01-09T08:15:04.354Z,98567.45
2019-01-09T08:18:18.304Z,98582.23
2019-01-09T08:21:31.542Z,98591.58
2019-01-09T08:24:45.725Z,98591.84
2019-01-09T08:27:59.671Z,98603.42
2019-01-09T08:31:13.737Z,98605.16
2019-01-09T08:34:28.156Z,98615.97
2019-01-09T08:37:42.809Z,98624.68
2019-01-09T08:40:57.367Z,98622.36
2019-01-09T08:44:11.477Z,98615.73
2019-01-09T08:47:25.178Z,98612.53
2019-01-09T08:50:39.128Z,98619.03
2019-01-09T08:54:13.044Z,98621.16
2019-01-09T08:57:27.040Z,98616.48
2019-01-09T09:00:42.761Z,98616.28
2019-01-09T09:03:56.998Z,98623.23
2019-01-09T09:07:11.039Z,98628.50
2019-01-09T09:10:24.926Z,98624.48
2019-01-09T09:13:39.303Z,98627.02
2019-01-09T09:16:52.827Z,98634.87
2019-01-09T09:20:07.749Z,98635.16
2019-01-09T09:23:21.379Z,98631.34
2019-01-09T09:26:35.428Z,98633.08
2019-01-09T09:29:49.176Z,98640.73
2019-01-09T09:33:03.097Z,98642.55
2019-01-09T09:36:16.635Z,98642.78
2019-01-09T09:39:30.426Z,98645.89
2019-01-09T09:42:44.211Z,98655.47
2019-01-09T09:45:58.703Z,98651.16
2019-01-09T09:49:28.159Z,98655.37
2019-01-09T09:52:42.689Z,98645.48
2019-01-09T09:55:57.455Z,98650.78
2019-01-09T09:59:11.903Z,98667.66
2019-01-09T10:02:25.788Z,98653.09
2019-01-09T10:05:39.954Z,98655.70
2019-01-09T10:08:53.936Z,98649.53
2019-01-09T10:12:07.883Z,98656.06
2019-01-09T10:15:21.708Z,98661.67
2019-01-09T10:18:35.625Z,98661.30
2019-01-09T10:21:49.694Z,98659.74
2019-01-09T10:25:04.087Z,98664.22
2019-01-09T10:28:17.794Z,98675.61
2019-01-09T10:31:31.657Z,98670.72
2019-01-09T10:34:45.543Z,98665.63
2019-01-09T10:37:59.379Z,98664.91
2019-01-09T10:41:13.436Z,98667.17
2019-01-09T10:44:27.317Z,98660.72
2019-01-09T10:47:41.246Z,98674.55
2019-01-09T10:50:55.045Z,98674.33
2019-01-09T10:54:09.173Z,98684.22
2019-01-09T10:57:23.178Z,98679.55
2019-01-09T11:04:09.256Z,98691.16
2019-01-09T11:07:23.403Z,98675.48
2019-01-09T11:10:36.939Z,98687.09
2019-01-09T11:13:50.578Z,98682.00
2019-01-09T11:17:04.412Z,98672.59
2019-01-09T11:20:19.497Z,98667.43
2019-01-09T11:23:33.515Z,98673.34
2019-01-09T11:26:47.545Z,98667.97
2019-01-09T11:30:01.373Z,98672.00
2019-01-09T11:33:14.948Z,98652.49
2019-01-09T11:36:29.032Z,98649.45
2019-01-09T11:39:42.671Z,98652.13
2019-01-09T11:42:57.118Z,98656.70
2019-01-09T11:46:10.915Z,98655.71
2019-01-09T11:49:24.923Z,98653.31
2019-01-09T12:00:49.061Z,98658.53
2019-01-09T12:04:02.771Z,98641.02
2019-01-09T12:07:16.687Z,98631.88
2019-01-09T12:10:30.724Z,98627.48
2019-01-09T12:13:44.381Z,98622.91
2019-01-09T12:16:58.051Z,98635.45
2019-01-09T12:20:13.746Z,98628.98
2019-01-09T12:23:27.561Z,98646.19
2019-01-09T12:26:41.401Z,98654.94
2019-01-09T12:29:55.358Z,98638.58
2019-01-09T12:33:09.049Z,98651.66
2019-01-09T12:36:23.231Z,98646.46
2019-01-09T12:39:36.916Z,98646.38
2019-01-09T12:42:50.606Z,98647.92
2019-01-09T12:46:04.973Z,98637.63
2019-01-09T12:49:18.704Z,98635.53
2019-01-09T12:52:32.374Z,98639.95
2019-01-09T12:55:46.758Z,98637.91
2019-01-09T12:59:01.630Z,98630.16
2019-01-09T13:02:15.722Z,98636.74
2019-01-09T13:05:29.489Z,98630.29
2019-01-09T13:08:43.075Z,98636.20
2019-01-09T13:11:56.747Z,98634.59
2019-01-09T13:15:10.948Z,98642.34
2019-01-09T13:18:24.878Z,98646.20
2019-01-09T13:21:38.612Z,98653.03
2019-01-09T13:24:52.361Z,98658.18
2019-01-09T13:28:07.608Z,98657.64
2019-01-09T13:31:21.468Z,98664.77
2019-01-09T13:34:35.675Z,98664.70
2019-01-09T13:37:49.479Z,98661.27
2019-01-09T13:41:04.104Z,98660.49
2019-01-09T13:44:17.867Z,98663.47
2019-01-09T13:47:32.433Z,98664.77
2019-01-09T13:50:46.215Z,98666.61
2019-01-09T13:54:00.303Z,98675.59
2019-01-09T13:57:14.047Z,98665.13
2019-01-09T14:00:27.650Z,98671.55
2019-01-09T14:03:41.379Z,98670.67
2019-01-09T14:06:55.105Z,98665.28
2019-01-09T14:10:11.652Z,98674.55
2019-01-09T14:13:25.289Z,98675.59
2019-01-09T14:16:38.917Z,98676.02
2019-01-09T14:19:52.946Z,98673.55
2019-01-09T14:23:07.022Z,98673.93
2019-01-09T14:26:20.855Z,98680.37
2019-01-09T14:29:35.200Z,98685.27
2019-01-09T14:32:49.975Z,98684.38
2019-01-09T14:36:03.989Z,98682.44
2019-01-09T14:39:17.737Z,98688.94
2019-01-09T14:42:31.838Z,98692.43
2019-01-09T14:45:45.509Z,98695.80
2019-01-09T14:48:59.233Z,98708.48
2019-01-09T14:52:13.265Z,98712.29
2019-01-09T14:55:27.012Z,98707.04
2019-01-09T14:58:40.783Z,98715.28
2019-01-09T15:01:54.955Z,98719.08
2019-01-09T15:05:09.040Z,98718.99
2019-01-09T15:08:22.784Z,98725.33
2019-01-09T15:11:36.425Z,98726.31
2019-01-09T15:14:50.032Z,98739.60
2019-01-09T15:18:04.301Z,98743.94
2019-01-09T15:21:18.471Z,98739.49
2019-01-09T15:24:33.536Z,98744.66
2019-01-09T15:27:48.303Z,98745.52
2019-01-09T15:31:02.112Z,98743.41
2019-01-09T15:34:16.158Z,98746.03
2019-01-09T15:37:29.940Z,98750.34
2019-01-09T15:40:43.658Z,98748.35
2019-01-09T15:43:57.429Z,98753.14
2019-01-09T15:47:11.147Z,98754.52
2019-01-09T15:50:25.447Z,98756.13
2019-01-09T15:53:39.752Z,98756.84
2019-01-09T15:56:53.766Z,98764.66
2019-01-09T16:00:14.015Z,98762.43
2019-01-09T16:03:27.747Z,98765.55
2019-01-09T16:06:41.687Z,98769.83
2019-01-09T16:09:55.811Z,98773.09
2019-01-09T16:13:09.541Z,98768.36
2019-01-09T16:16:23.445Z,98765.34
2019-01-09T16:19:37.678Z,98769.08
2019-01-09T16:22:51.315Z,98770.31
2019-01-09T16:26:05.298Z,98770.34
2019-01-09T16:29:18.960Z,98772.30
2019-01-09T16:32:32.612Z,98779.23
2019-01-09T16:35:46.636Z,98778.92
2019-01-09T16:39:00.565Z,98780.22
2019-01-09T16:42:14.144Z,98785.42
2019-01-09T16:45:28.139Z,98788.00
2019-01-09T16:48:41.989Z,98796.77
2019-01-09T16:51:55.962Z,98796.56
2019-01-09T16:55:09.938Z,98796.19
2019-01-09T16:58:24.117Z,98792.22
2019-01-09T17:01:37.896Z,98800.38
2019-01-09T17:04:51.727Z,98794.85
2019-01-09T17:08:05.802Z,98801.33
2019-01-09T17:11:19.630Z,98809.97
2019-01-09T17:14:33.470Z,98816.95
2019-01-09T17:17:47.348Z,98821.62
2019-01-09T17:21:01.755Z,98819.28
2019-01-09T17:24:15.957Z,98820.73
2019-01-09T17:27:35.880Z,98821.08
2019-01-09T17:30:49.852Z,98833.23
2019-01-09T17:34:03.876Z,98840.65
2019-01-09T17:37:17.779Z,98838.41
2019-01-09T17:40:40.694Z,98841.05
2019-01-09T17:43:47.669Z,98840.95
2019-01-09T17:47:01.389Z,98842.05
2019-01-09T17:50:19.653Z,98839.43
2019-01-09T17:53:34.314Z,98846.61
2019-01-09T17:56:48.032Z,98851.08
2019-01-09T18:00:02.086Z,98858.25
2019-01-09T18:03:16.179Z,98861.36
2019-01-09T18:06:30.799Z,98865.37
2019-01-09T18:09:44.829Z,98869.45
2019-01-09T18:12:58.704Z,98873.37
2019-01-09T18:16:12.473Z,98871.56
2019-01-09T18:19:26.307Z,98875.50
2019-01-09T18:22:39.988Z,98883.11
2019-01-09T18:25:54.055Z,98879.86
2019-01-09T18:29:07.873Z,98894.81
2019-01-09T18:32:46.658Z,98897.75
2019-01-09T18:36:36.404Z,98901.27
2019-01-09T18:40:27.224Z,98899.17
2019-01-09T18:44:16.347Z,98911.78
2019-01-09T18:48:21.366Z,98912.23
2019-01-09T18:52:25.619Z,98913.84
2019-01-09T18:55:39.484Z,98913.30
2019-01-09T18:58:53.334Z,98916.15
2019-01-09T19:02:07.185Z,98919.26
2019-01-09T19:05:21.269Z,98920.78
2019-01-09T19:17:21.850Z,98923.78
2019-01-09T19:20:35.519Z,98934.36
2019-01-09T19:23:49.261Z,98935.97
2019-01-09T19:27:03.970Z,98940.36
2019-01-09T19:30:21.359Z,98951.38
2019-01-09T19:33:35.160Z,98956.30
2019-01-09T19:36:48.889Z,98951.67
2019-01-09T19:40:03.613Z,98960.22
2019-01-09T19:43:17.398Z,98961.98
2019-01-09T19:46:31.217Z,98961.84
2019-01-09T19:49:45.414Z,98963.31
2019-01-09T19:52:59.245Z,98964.25
2019-01-09T19:56:13.268Z,98971.52
2019-01-09T19:59:27.227Z,98968.73
2019-01-09T20:02:41.403Z,98972.16
2019-01-09T20:05:55.332Z,98977.41
2019-01-09T20:09:09.301Z,98985.78
2019-01-09T20:12:22.979Z,98990.28
2019-01-09T20:15:36.925Z,98991.99
2019-01-09T20:18:50.956Z,98983.75
2019-01-09T20:22:04.974Z,98990.03
2019-01-09T20:25:19.220Z,98995.61
2019-01-09T20:28:35.455Z,98990.15
2019-01-09T20:31:48.895Z,98996.81
2019-01-09T20:35:03.662Z,99002.97
2019-01-09T20:38:17.551Z,99004.93
2019-01-09T20:41:35.445Z,99001.55
2019-01-09T20:44:46.961Z,99008.47
2019-01-09T20:48:00.901Z,99013.66
2019-01-09T20:51:14.655Z,99015.69
2019-01-09T20:54:28.582Z,99011.59
2019-01-09T20:57:42.991Z,99019.73
2019-01-09T21:00:56.812Z,99020.67
2019-01-09T21:04:11.066Z,99024.94
2019-01-09T21:07:24.742Z,99022.47
2019-01-09T21:10:38.535Z,99023.09
2019-01-09T21:13:52.242Z,99030.01
2019-01-09T21:17:05.925Z,99026.41
2019-01-09T21:20:20.329Z,99034.50
2019-01-09T21:23:34.033Z,99035.02
2019-01-09T21:26:48.433Z,99037.36
2019-01-09T21:30:03.498Z,99037.03
2019-01-09T21:33:17.055Z,99040.77
2019-01-09T21:36:30.840Z,99044.12
2019-01-09T21:39:44.948Z,99050.72
2019-01-09T21:42:58.763Z,99050.80
2019-01-09T21:46:12.765Z,99046.75
2019-01-09T21:49:26.580Z,99055.11
2019-01-09T21:52:40.556Z,99064.41
2019-01-09T21:55:54.316Z,99065.10
2019-01-09T21:59:07.855Z,99063.14
2019-01-09T22:02:21.533Z,99066.06
2019-01-09T22:05:35.657Z,99069.16
2019-01-09T22:08:49.583Z,99072.77
2019-01-09T22:12:03.658Z,99079.62
2019-01-09T22:15:17.700Z,99080.00
2019-01-09T22:18:31.949Z,99084.55
2019-01-09T22:21:45.488Z,99089.53
2019-01-09T22:24:59.833Z,99085.20
2019-01-09T22:28:13.746Z,99093.74
2019-01-09T22:31:27.312Z,99091.36
2019-01-09T22:34:41.049Z,99092.11
2019-01-09T22:37:54.945Z,99087.98
2019-01-09T22:41:08.644Z,99090.25
2019-01-09T22:44:22.550Z,99089.70
2019-01-09T22:47:36.443Z,99096.62
2019-01-09T22:50:50.279Z,99098.10
2019-01-09T22:54:04.028Z,99106.80
2019-01-09T22:57:17.625Z,99114.55
2019-01-09T23:03:51.597Z,99112.97
2019-01-09T23:07:05.653Z,99118.88
2019-01-09T23:10:19.294Z,99117.45
2019-01-09T23:13:33.241Z,99116.50
2019-01-09T23:16:46.799Z,99118.81
2019-01-09T23:20:00.489Z,99124.06
2019-01-09T23:23:14.606Z,99118.30
2019-01-09T23:26:28.401Z,99115.57
2019-01-09T23:29:42.019Z,99109.65
2019-01-09T23:32:55.885Z,99113.04
2019-01-09T23:36:09.871Z,99118.81
2019-01-09T23:39:23.645Z,99117.73
2019-01-09T23:42:37.498Z,99119.86
2019-01-09T23:45:51.511Z,99112.33
2019-01-09T23:49:05.171Z,99115.13
2019-01-09T23:52:18.918Z,99120.38
2019-01-09T23:55:32.576Z,99119.34
2019-01-09T23:58:46.235Z,99121.64
